sensor_id;sensor_type;location;lat;lon;timestamp;pressure;altitude;pressure_sealevel;temperature;humidity
78337;BME280;67610;51.588;7.002;2023-02-17T00:01:12;101277.84;;;11.56;71.02
78337;BME280;67610;51.588;7.002;2023-02-17T00:03:38;101277.84;;;11.56;71.36
78337;BME280;67610;51.588;7.002;2023-02-17T00:06:08;101272.72;;;11.55;71.48
78337;BME280;67610;51.588;7.002;2023-02-17T00:08:35;101271.06;;;11.54;71.56
78337;BME280;67610;51.588;7.002;2023-02-17T00:11:02;101276.34;;;11.54;71.91
78337;BME280;67610;51.588;7.002;2023-02-17T00:13:28;101271.50;;;11.49;71.85
78337;BME280;67610;51.588;7.002;2023-02-17T00:15:54;101276.63;;;11.51;71.96
78337;BME280;67610;51.588;7.002;2023-02-17T00:18:19;101277.84;;;11.56;71.86
78337;BME280;67610;51.588;7.002;2023-02-17T00:20:45;101274.50;;;11.54;72.23
78337;BME280;67610;51.588;7.002;2023-02-17T00:23:11;101264.28;;;11.51;72.35
78337;BME280;67610;51.588;7.002;2023-02-17T00:25:37;101269.25;;;11.54;72.24
78337;BME280;67610;51.588;7.002;2023-02-17T00:28:03;101271.06;;;11.54;72.34
78337;BME280;67610;51.588;7.002;2023-02-17T00:30:28;101270.22;;;11.53;72.50
78337;BME280;67610;51.588;7.002;2023-02-17T00:32:54;101265.09;;;11.52;72.40
78337;BME280;67610;51.588;7.002;2023-02-17T00:35:19;101251.91;;;11.52;72.74
78337;BME280;67610;51.588;7.002;2023-02-17T00:37:44;101257.50;;;11.49;72.57
78337;BME280;67610;51.588;7.002;2023-02-17T00:40:12;101254.53;;;11.52;72.46
78337;BME280;67610;51.588;7.002;2023-02-17T00:42:38;101252.91;;;11.51;72.40
78337;BME280;67610;51.588;7.002;2023-02-17T00:45:05;101249.84;;;11.55;72.77
78337;BME280;67610;51.588;7.002;2023-02-17T00:47:30;101257.91;;;11.54;72.57
78337;BME280;67610;51.588;7.002;2023-02-17T00:49:56;101250.44;;;11.49;73.00
78337;BME280;67610;51.588;7.002;2023-02-17T00:52:21;101250.97;;;11.53;72.88
78337;BME280;67610;51.588;7.002;2023-02-17T00:54:47;101252.47;;;11.55;72.95
78337;BME280;67610;51.588;7.002;2023-02-17T00:57:13;101253.44;;;11.54;72.83
78337;BME280;67610;51.588;7.002;2023-02-17T00:59:38;101250.28;;;11.51;73.38
78337;BME280;67610;51.588;7.002;2023-02-17T01:02:04;101249.44;;;11.50;72.92
78337;BME280;67610;51.588;7.002;2023-02-17T01:04:29;101244.31;;;11.49;73.10
78337;BME280;67610;51.588;7.002;2023-02-17T01:06:55;101238.91;;;11.50;73.01
78337;BME280;67610;51.588;7.002;2023-02-17T01:09:20;101239.31;;;11.55;73.18
78337;BME280;67610;51.588;7.002;2023-02-17T01:11:45;101239.03;;;11.58;72.94
78337;BME280;67610;51.588;7.002;2023-02-17T01:14:12;101232.09;;;11.57;73.17
78337;BME280;67610;51.588;7.002;2023-02-17T01:16:39;101240.00;;;11.57;72.84
78337;BME280;67610;51.588;7.002;2023-02-17T01:19:08;101234.19;;;11.54;72.92
78337;BME280;67610;51.588;7.002;2023-02-17T01:21:34;101238.06;;;11.50;73.38
78337;BME280;67610;51.588;7.002;2023-02-17T01:24:03;101240.81;;;11.58;73.38
78337;BME280;67610;51.588;7.002;2023-02-17T01:26:31;101241.25;;;11.53;73.38
78337;BME280;67610;51.588;7.002;2023-02-17T01:28:57;101233.34;;;11.53;73.54
78337;BME280;67610;51.588;7.002;2023-02-17T01:31:24;101229.03;;;11.52;73.73
78337;BME280;67610;51.588;7.002;2023-02-17T01:33:52;101217.97;;;11.49;73.95
78337;BME280;67610;51.588;7.002;2023-02-17T01:36:18;101221.88;;;11.45;73.90
78337;BME280;67610;51.588;7.002;2023-02-17T01:38:44;101214.34;;;11.50;73.96
78337;BME280;67610;51.588;7.002;2023-02-17T01:41:15;101211.03;;;11.48;74.04
78337;BME280;67610;51.588;7.002;2023-02-17T01:43:41;101203.00;;;11.49;74.02
78337;BME280;67610;51.588;7.002;2023-02-17T01:46:07;101203.00;;;11.49;74.04
78337;BME280;67610;51.588;7.002;2023-02-17T01:48:46;101192.06;;;11.44;74.05
78337;BME280;67610;51.588;7.002;2023-02-17T01:51:21;101196.75;;;11.50;74.13
78337;BME280;67610;51.588;7.002;2023-02-17T01:53:54;101184.56;;;11.49;74.27
78337;BME280;67610;51.588;7.002;2023-02-17T01:56:23;101187.56;;;11.54;73.84
78337;BME280;67610;51.588;7.002;2023-02-17T01:58:54;101186.66;;;11.46;74.55
78337;BME280;67610;51.588;7.002;2023-02-17T02:01:21;101191.06;;;11.45;74.42
78337;BME280;67610;51.588;7.002;2023-02-17T02:03:47;101188.59;;;11.44;74.35
78337;BME280;67610;51.588;7.002;2023-02-17T02:06:22;101190.13;;;11.46;74.39
78337;BME280;67610;51.588;7.002;2023-02-17T02:08:56;101182.75;;;11.50;74.02
78337;BME280;67610;51.588;7.002;2023-02-17T02:11:23;101191.47;;;11.50;74.05
78337;BME280;67610;51.588;7.002;2023-02-17T02:13:49;101193.16;;;11.51;74.24
78337;BME280;67610;51.588;7.002;2023-02-17T02:17:21;101185.53;;;11.48;74.69
78337;BME280;67610;51.588;7.002;2023-02-17T02:27:57;101189.97;;;11.48;74.48
78337;BME280;67610;51.588;7.002;2023-02-17T02:35:42;101163.34;;;11.51;73.91
78337;BME280;67610;51.588;7.002;2023-02-17T02:41:10;101155.16;;;11.54;73.92
78337;BME280;67610;51.588;7.002;2023-02-17T02:43:38;101153.31;;;11.54;73.66
78337;BME280;67610;51.588;7.002;2023-02-17T02:46:04;101146.94;;;11.57;73.73
78337;BME280;67610;51.588;7.002;2023-02-17T02:48:29;101146.81;;;11.58;73.62
78337;BME280;67610;51.588;7.002;2023-02-17T02:59:15;101126.69;;;11.57;73.65
78337;BME280;67610;51.588;7.002;2023-02-17T03:02:07;101127.00;;;11.54;73.84
78337;BME280;67610;51.588;7.002;2023-02-17T03:04:44;101128.50;;;11.57;73.62
78337;BME280;67610;51.588;7.002;2023-02-17T03:07:31;101123.78;;;11.60;73.36
78337;BME280;67610;51.588;7.002;2023-02-17T03:09:58;101129.91;;;11.61;73.17
78337;BME280;67610;51.588;7.002;2023-02-17T03:12:25;101137.09;;;11.59;73.36
78337;BME280;67610;51.588;7.002;2023-02-17T03:14:55;101137.91;;;11.59;73.22
78337;BME280;67610;51.588;7.002;2023-02-17T03:17:22;101131.53;;;11.62;73.19
78337;BME280;67610;51.588;7.002;2023-02-17T03:19:48;101131.94;;;11.67;72.89
78337;BME280;67610;51.588;7.002;2023-02-17T03:22:26;101130.97;;;11.68;72.88
78337;BME280;67610;51.588;7.002;2023-02-17T03:24:54;101127.38;;;11.69;72.56
78337;BME280;67610;51.588;7.002;2023-02-17T03:27:19;101115.28;;;11.66;72.63
78337;BME280;67610;51.588;7.002;2023-02-17T03:29:44;101120.84;;;11.63;72.72
78337;BME280;67610;51.588;7.002;2023-02-17T03:32:11;101124.19;;;11.65;72.73
78337;BME280;67610;51.588;7.002;2023-02-17T03:34:37;101122.09;;;11.69;72.61
78337;BME280;67610;51.588;7.002;2023-02-17T03:37:02;101124.97;;;11.75;72.14
78337;BME280;67610;51.588;7.002;2023-02-17T03:39:28;101133.19;;;11.72;72.12
78337;BME280;67610;51.588;7.002;2023-02-17T03:41:53;101134.16;;;11.71;72.01
78337;BME280;67610;51.588;7.002;2023-02-17T03:44:21;101132.88;;;11.75;72.24
78337;BME280;67610;51.588;7.002;2023-02-17T03:46:47;101136.19;;;11.77;72.01
78337;BME280;67610;51.588;7.002;2023-02-17T03:49:13;101138.84;;;11.77;72.17
78337;BME280;67610;51.588;7.002;2023-02-17T03:51:38;101138.84;;;11.77;72.10
78337;BME280;67610;51.588;7.002;2023-02-17T03:54:04;101134.25;;;11.79;71.90
78337;BME280;67610;51.588;7.002;2023-02-17T03:56:29;101143.97;;;11.79;71.81
78337;BME280;67610;51.588;7.002;2023-02-17T03:58:55;101136.75;;;11.81;71.73
78337;BME280;67610;51.588;7.002;2023-02-17T04:01:21;101136.06;;;11.79;72.08
78337;BME280;67610;51.588;7.002;2023-02-17T04:03:46;101140.50;;;11.78;71.77
78337;BME280;67610;51.588;7.002;2023-02-17T04:06:12;101143.81;;;11.80;71.91
78337;BME280;67610;51.588;7.002;2023-02-17T04:08:39;101150.06;;;11.79;71.80
78337;BME280;67610;51.588;7.002;2023-02-17T04:11:07;101151.72;;;11.80;71.78
78337;BME280;67610;51.588;7.002;2023-02-17T04:13:33;101158.22;;;11.86;71.64
78337;BME280;67610;51.588;7.002;2023-02-17T04:15:59;101155.59;;;11.86;71.50
78337;BME280;67610;51.588;7.002;2023-02-17T04:18:26;101154.75;;;11.85;71.59
78337;BME280;67610;51.588;7.002;2023-02-17T04:20:53;101147.97;;;11.83;71.46
78337;BME280;67610;51.588;7.002;2023-02-17T04:23:19;101136.16;;;11.87;71.39
78337;BME280;67610;51.588;7.002;2023-02-17T04:25:45;101130.75;;;11.88;71.17
78337;BME280;67610;51.588;7.002;2023-02-17T04:28:11;101114.09;;;11.88;71.02
78337;BME280;67610;51.588;7.002;2023-02-17T04:30:38;101118.53;;;11.87;71.28
78337;BME280;67610;51.588;7.002;2023-02-17T04:33:03;101114.09;;;11.88;71.17
78337;BME280;67610;51.588;7.002;2023-02-17T04:35:30;101112.44;;;11.87;70.99
78337;BME280;67610;51.588;7.002;2023-02-17T04:37:57;101097.44;;;11.87;70.96
78337;BME280;67610;51.588;7.002;2023-02-17T04:40:22;101104.06;;;11.91;70.90
78337;BME280;67610;51.588;7.002;2023-02-17T04:42:48;101118.25;;;11.90;70.89
78337;BME280;67610;51.588;7.002;2023-02-17T04:45:13;101110.63;;;11.87;70.97
78337;BME280;67610;51.588;7.002;2023-02-17T04:47:39;101117.25;;;11.91;70.90
78337;BME280;67610;51.588;7.002;2023-02-17T04:50:06;101116.28;;;11.93;70.92
78337;BME280;67610;51.588;7.002;2023-02-17T04:52:32;101113.66;;;11.93;70.70
78337;BME280;67610;51.588;7.002;2023-02-17T04:54:59;101111.00;;;11.93;70.68
78337;BME280;67610;51.588;7.002;2023-02-17T04:57:24;101104.38;;;11.88;70.86
78337;BME280;67610;51.588;7.002;2023-02-17T04:59:50;101109.78;;;11.87;70.70
78337;BME280;67610;51.588;7.002;2023-02-17T05:02:15;101129.47;;;11.93;70.68
78337;BME280;67610;51.588;7.002;2023-02-17T05:04:40;101130.44;;;11.91;70.52
78337;BME280;67610;51.588;7.002;2023-02-17T05:07:06;101134.63;;;11.84;70.59
78337;BME280;67610;51.588;7.002;2023-02-17T05:09:31;101130.44;;;11.91;70.56
78337;BME280;67610;51.588;7.002;2023-02-17T05:11:57;101130.75;;;11.88;70.55
78337;BME280;67610;51.588;7.002;2023-02-17T05:14:23;101130.19;;;11.85;70.40
78337;BME280;67610;51.588;7.002;2023-02-17T05:16:48;101116.72;;;11.88;70.49
78337;BME280;67610;51.588;7.002;2023-02-17T05:19:14;101106.03;;;11.89;70.14
78337;BME280;67610;51.588;7.002;2023-02-17T05:21:39;101103.50;;;11.98;69.74
78337;BME280;67610;51.588;7.002;2023-02-17T05:24:05;101108.22;;;11.94;69.55
78337;BME280;67610;51.588;7.002;2023-02-17T05:26:31;101106.13;;;11.98;69.73
78337;BME280;67610;51.588;7.002;2023-02-17T05:28:56;101109.56;;;11.98;69.70
78337;BME280;67610;51.588;7.002;2023-02-17T05:31:22;101109.72;;;11.97;69.72
78337;BME280;67610;51.588;7.002;2023-02-17T05:33:48;101097.66;;;11.94;69.87
78337;BME280;67610;51.588;7.002;2023-02-17T05:36:13;101108.22;;;11.94;69.70
78337;BME280;67610;51.588;7.002;2023-02-17T05:38:39;101101.31;;;11.93;69.83
78337;BME280;67610;51.588;7.002;2023-02-17T05:41:05;101099.63;;;11.92;69.80
78337;BME280;67610;51.588;7.002;2023-02-17T05:43:30;101104.75;;;11.93;69.81
78337;BME280;67610;51.588;7.002;2023-02-17T05:46:01;101097.91;;;12.01;69.40
78337;BME280;67610;51.588;7.002;2023-02-17T05:48:27;101093.63;;;12.00;69.26
78337;BME280;67610;51.588;7.002;2023-02-17T05:50:52;101075.31;;;11.98;69.23
78337;BME280;67610;51.588;7.002;2023-02-17T05:53:17;101073.50;;;11.99;69.29
78337;BME280;67610;51.588;7.002;2023-02-17T05:55:43;101085.72;;;12.00;69.08
78337;BME280;67610;51.588;7.002;2023-02-17T05:58:08;101086.00;;;11.97;69.26
78337;BME280;67610;51.588;7.002;2023-02-17T06:00:34;101076.81;;;12.01;69.05
78337;BME280;67610;51.588;7.002;2023-02-17T06:02:59;101078.78;;;11.99;69.13
78337;BME280;67610;51.588;7.002;2023-02-17T06:05:24;101078.78;;;11.99;68.83
78337;BME280;67610;51.588;7.002;2023-02-17T06:07:50;101079.38;;;11.93;69.15
78337;BME280;67610;51.588;7.002;2023-02-17T06:10:16;101070.81;;;11.90;69.28
78337;BME280;67610;51.588;7.002;2023-02-17T06:12:41;101073.28;;;11.92;69.23
78337;BME280;67610;51.588;7.002;2023-02-17T06:15:07;101078.38;;;11.93;69.10
78337;BME280;67610;51.588;7.002;2023-02-17T06:17:33;101096.31;;;11.90;69.22
78337;BME280;67610;51.588;7.002;2023-02-17T06:19:58;101100.75;;;11.89;69.22
78337;BME280;67610;51.588;7.002;2023-02-17T06:22:23;101091.88;;;11.90;69.20
78337;BME280;67610;51.588;7.002;2023-02-17T06:24:49;101084.50;;;11.94;69.15
78337;BME280;67610;51.588;7.002;2023-02-17T06:27:14;101095.59;;;11.98;69.09
78337;BME280;67610;51.588;7.002;2023-02-17T06:29:40;101100.31;;;11.94;69.26
78337;BME280;67610;51.588;7.002;2023-02-17T06:32:06;101110.19;;;11.92;69.31
78337;BME280;67610;51.588;7.002;2023-02-17T06:34:31;101109.50;;;11.90;69.56
78337;BME280;67610;51.588;7.002;2023-02-17T06:36:58;101096.56;;;11.97;69.24
78337;BME280;67610;51.588;7.002;2023-02-17T06:39:24;101093.91;;;11.97;69.66
78337;BME280;67610;51.588;7.002;2023-02-17T06:41:49;101093.69;;;12.08;69.07
78337;BME280;67610;51.588;7.002;2023-02-17T06:44:15;101086.22;;;12.03;69.40
78337;BME280;67610;51.588;7.002;2023-02-17T06:46:40;101083.31;;;12.06;69.35
78337;BME280;67610;51.588;7.002;2023-02-17T06:49:05;101072.66;;;11.98;69.83
78337;BME280;67610;51.588;7.002;2023-02-17T06:51:31;101077.66;;;12.01;70.13
78337;BME280;67610;51.588;7.002;2023-02-17T06:53:56;101077.13;;;11.98;70.52
78337;BME280;67610;51.588;7.002;2023-02-17T06:56:22;101082.47;;;11.88;71.23
78337;BME280;67610;51.588;7.002;2023-02-17T06:58:48;101101.59;;;11.90;70.89
78337;BME280;67610;51.588;7.002;2023-02-17T07:01:25;101123.50;;;11.90;71.86
78337;BME280;67610;51.588;7.002;2023-02-17T07:03:52;101103.31;;;11.81;71.69
78337;BME280;67610;51.588;7.002;2023-02-17T07:06:18;101089.16;;;11.82;71.77
78337;BME280;67610;51.588;7.002;2023-02-17T07:08:44;101112.47;;;11.77;72.21
78337;BME280;67610;51.588;7.002;2023-02-17T07:11:11;101097.66;;;11.76;72.21
78337;BME280;67610;51.588;7.002;2023-02-17T07:13:37;101095.94;;;11.85;71.84
78337;BME280;67610;51.588;7.002;2023-02-17T07:16:03;101097.44;;;11.87;71.71
78337;BME280;67610;51.588;7.002;2023-02-17T07:18:29;101094.66;;;11.89;71.95
78337;BME280;67610;51.588;7.002;2023-02-17T07:20:55;101100.09;;;11.87;71.72
78337;BME280;67610;51.588;7.002;2023-02-17T07:23:20;101106.03;;;11.89;71.53
78337;BME280;67610;51.588;7.002;2023-02-17T07:25:46;101112.44;;;11.87;71.84
78337;BME280;67610;51.588;7.002;2023-02-17T07:28:12;101097.97;;;11.91;71.76
78337;BME280;67610;51.588;7.002;2023-02-17T07:30:39;101098.78;;;11.91;71.79
78337;BME280;67610;51.588;7.002;2023-02-17T07:33:05;101089.25;;;11.90;71.85
78337;BME280;67610;51.588;7.002;2023-02-17T07:35:31;101087.97;;;11.95;71.67
78337;BME280;67610;51.588;7.002;2023-02-17T07:37:57;101092.78;;;11.99;71.66
78337;BME280;67610;51.588;7.002;2023-02-17T07:40:24;101090.66;;;12.03;71.43
78337;BME280;67610;51.588;7.002;2023-02-17T07:42:51;101086.56;;;12.00;71.45
78337;BME280;67610;51.588;7.002;2023-02-17T07:45:16;101091.81;;;12.00;71.67
78337;BME280;67610;51.588;7.002;2023-02-17T07:47:42;101083.16;;;12.08;71.46
78337;BME280;67610;51.588;7.002;2023-02-17T07:50:09;101076.63;;;12.12;71.36
78337;BME280;67610;51.588;7.002;2023-02-17T07:52:34;101090.09;;;12.09;71.35
78337;BME280;67610;51.588;7.002;2023-02-17T07:55:00;101078.63;;;12.18;71.19
78337;BME280;67610;51.588;7.002;2023-02-17T07:57:26;101083.91;;;12.18;71.14
78337;BME280;67610;51.588;7.002;2023-02-17T07:59:51;101078.78;;;12.16;71.27
78337;BME280;67610;51.588;7.002;2023-02-17T08:02:17;101073.06;;;12.21;71.27
78337;BME280;67610;51.588;7.002;2023-02-17T08:04:42;101080.97;;;12.21;71.15
78337;BME280;67610;51.588;7.002;2023-02-17T08:07:09;101076.38;;;12.23;71.25
78337;BME280;67610;51.588;7.002;2023-02-17T08:09:34;101075.53;;;12.22;71.08
78337;BME280;67610;51.588;7.002;2023-02-17T08:12:19;101072.44;;;12.27;71.06
78337;BME280;67610;51.588;7.002;2023-02-17T08:15:04;101079.91;;;12.31;71.09
78337;BME280;67610;51.588;7.002;2023-02-17T08:17:31;101069.34;;;12.31;70.89
78337;BME280;67610;51.588;7.002;2023-02-17T08:19:57;101068.97;;;12.44;70.55
78337;BME280;67610;51.588;7.002;2023-02-17T08:22:22;101075.53;;;12.40;70.70
78337;BME280;67610;51.588;7.002;2023-02-17T08:24:48;101087.06;;;12.39;70.83
78337;BME280;67610;51.588;7.002;2023-02-17T08:27:15;101073.34;;;12.35;70.96
78337;BME280;67610;51.588;7.002;2023-02-17T08:29:47;101064.97;;;12.40;70.78
78337;BME280;67610;51.588;7.002;2023-02-17T08:32:14;101082.47;;;12.41;70.71
78337;BME280;67610;51.588;7.002;2023-02-17T08:34:40;101074.19;;;12.36;71.06
78337;BME280;67610;51.588;7.002;2023-02-17T08:37:06;101065.63;;;12.42;70.80
78337;BME280;67610;51.588;7.002;2023-02-17T08:39:32;101059.56;;;12.41;70.84
78337;BME280;67610;51.588;7.002;2023-02-17T08:41:59;101064.38;;;12.46;70.47
78337;BME280;67610;51.588;7.002;2023-02-17T08:44:25;101065.50;;;12.43;70.92
78337;BME280;67610;51.588;7.002;2023-02-17T08:46:52;101062.41;;;12.48;70.67
78337;BME280;67610;51.588;7.002;2023-02-17T08:49:23;101073.19;;;12.54;70.15
78337;BME280;67610;51.588;7.002;2023-02-17T08:51:49;101063.28;;;12.56;70.18
78337;BME280;67610;51.588;7.002;2023-02-17T08:54:15;101074.69;;;12.57;70.28
78337;BME280;67610;51.588;7.002;2023-02-17T08:56:41;101084.47;;;12.65;69.96
78337;BME280;67610;51.588;7.002;2023-02-17T08:59:08;101088.63;;;12.67;69.91
78337;BME280;67610;51.588;7.002;2023-02-17T09:01:35;101086.50;;;12.71;69.79
78337;BME280;67610;51.588;7.002;2023-02-17T09:04:03;101075.31;;;12.77;69.69
78337;BME280;67610;51.588;7.002;2023-02-17T09:06:33;101077.81;;;12.78;69.44
78337;BME280;67610;51.588;7.002;2023-02-17T09:08:59;101058.66;;;12.76;69.23
78337;BME280;67610;51.588;7.002;2023-02-17T09:11:24;101060.88;;;12.89;68.79
78337;BME280;67610;51.588;7.002;2023-02-17T09:13:49;101057.91;;;12.92;68.53
78337;BME280;67610;51.588;7.002;2023-02-17T09:16:15;101068.66;;;12.90;68.86
78337;BME280;67610;51.588;7.002;2023-02-17T09:18:42;101068.31;;;12.93;68.88
78337;BME280;67610;51.588;7.002;2023-02-17T09:21:10;101067.09;;;13.05;67.96
78337;BME280;67610;51.588;7.002;2023-02-17T09:23:35;101062.75;;;13.04;68.41
78337;BME280;67610;51.588;7.002;2023-02-17T09:26:06;101059.84;;;13.07;68.04
78337;BME280;67610;51.588;7.002;2023-02-17T09:28:32;101063.22;;;13.17;68.04
78337;BME280;67610;51.588;7.002;2023-02-17T09:30:58;101080.69;;;13.18;68.00
78337;BME280;67610;51.588;7.002;2023-02-17T09:33:25;101077.09;;;13.19;68.45
78337;BME280;67610;51.588;7.002;2023-02-17T09:35:51;101076.97;;;13.29;67.90
78337;BME280;67610;51.588;7.002;2023-02-17T09:38:17;101083.78;;;13.40;67.65
78337;BME280;67610;51.588;7.002;2023-02-17T09:40:47;101081.31;;;13.46;67.38
78337;BME280;67610;51.588;7.002;2023-02-17T09:43:15;101096.22;;;13.55;66.91
78337;BME280;67610;51.588;7.002;2023-02-17T09:45:44;101093.94;;;13.60;66.29
78337;BME280;67610;51.588;7.002;2023-02-17T09:48:14;101099.75;;;13.64;66.31
78337;BME280;67610;51.588;7.002;2023-02-17T09:53:14;101113.28;;;13.61;66.56
78337;BME280;67610;51.588;7.002;2023-02-17T09:55:45;101125.16;;;13.65;66.28
78337;BME280;67610;51.588;7.002;2023-02-17T09:58:13;101119.56;;;13.68;66.04
78337;BME280;67610;51.588;7.002;2023-02-17T10:00:44;101113.31;;;13.77;65.84
78337;BME280;67610;51.588;7.002;2023-02-17T10:03:33;101124.91;;;13.76;65.75
78337;BME280;67610;51.588;7.002;2023-02-17T10:11:29;101120.44;;;13.76;65.76
78337;BME280;67610;51.588;7.002;2023-02-17T10:14:05;101132.00;;;13.75;66.00
78337;BME280;67610;51.588;7.002;2023-02-17T10:16:37;101140.13;;;13.82;65.37
78337;BME280;67610;51.588;7.002;2023-02-17T10:20:27;101140.59;;;13.77;65.26
78337;BME280;67610;51.588;7.002;2023-02-17T10:22:21;101152.00;;;13.78;65.24
78337;BME280;67610;51.588;7.002;2023-02-17T10:24:48;101151.84;;;13.79;64.98
78337;BME280;67610;51.588;7.002;2023-02-17T10:32:24;101112.72;;;13.91;64.85
78337;BME280;67610;51.588;7.002;2023-02-17T10:35:02;101108.25;;;13.91;64.86
78337;BME280;67610;51.588;7.002;2023-02-17T10:37:49;101094.19;;;13.91;64.45
78337;BME280;67610;51.588;7.002;2023-02-17T10:40:24;101113.41;;;14.01;64.36
78337;BME280;67610;51.588;7.002;2023-02-17T10:42:56;101124.13;;;13.99;64.25
78337;BME280;67610;51.588;7.002;2023-02-17T10:45:37;101123.47;;;13.89;64.60
78337;BME280;67610;51.588;7.002;2023-02-17T10:48:08;101114.69;;;13.89;64.63
78337;BME280;67610;51.588;7.002;2023-02-17T10:50:37;101105.97;;;13.96;64.71
78337;BME280;67610;51.588;7.002;2023-02-17T10:53:26;101098.50;;;14.00;64.64
78337;BME280;67610;51.588;7.002;2023-02-17T10:56:05;101102.84;;;14.01;64.62
78337;BME280;67610;51.588;7.002;2023-02-17T11:01:06;101082.81;;;14.07;64.49
78337;BME280;67610;51.588;7.002;2023-02-17T11:03:35;101086.13;;;14.09;64.11
78337;BME280;67610;51.588;7.002;2023-02-17T11:06:04;101096.38;;;14.12;64.26
78337;BME280;67610;51.588;7.002;2023-02-17T11:08:43;101096.91;;;14.15;64.11
78337;BME280;67610;51.588;7.002;2023-02-17T11:11:16;101085.34;;;14.24;63.50
78337;BME280;67610;51.588;7.002;2023-02-17T11:16:27;101086.97;;;14.25;63.64
78337;BME280;67610;51.588;7.002;2023-02-17T11:18:54;101089.84;;;14.40;63.66
78337;BME280;67610;51.588;7.002;2023-02-17T11:21:20;101082.06;;;14.46;63.07
78337;BME280;67610;51.588;7.002;2023-02-17T11:26:24;101070.47;;;14.72;61.75
78337;BME280;67610;51.588;7.002;2023-02-17T11:28:50;101082.88;;;14.71;61.54
78337;BME280;67610;51.588;7.002;2023-02-17T11:31:24;101087.00;;;14.74;61.97
78337;BME280;67610;51.588;7.002;2023-02-17T11:33:49;101101.91;;;14.66;61.40
78337;BME280;67610;51.588;7.002;2023-02-17T11:36:29;101096.28;;;14.78;61.64
78337;BME280;67610;51.588;7.002;2023-02-17T11:38:56;101079.53;;;14.85;60.88
78337;BME280;67610;51.588;7.002;2023-02-17T11:41:23;101099.25;;;14.83;61.39
78337;BME280;67610;51.588;7.002;2023-02-17T11:43:57;101102.06;;;14.89;60.86
78337;BME280;67610;51.588;7.002;2023-02-17T11:46:49;101094.13;;;14.89;60.77
78337;BME280;67610;51.588;7.002;2023-02-17T11:57:42;101066.44;;;14.92;60.41
78337;BME280;67610;51.588;7.002;2023-02-17T12:11:40;101052.50;;;15.06;60.04
78337;BME280;67610;51.588;7.002;2023-02-17T12:14:28;101060.44;;;15.06;60.12
78337;BME280;67610;51.588;7.002;2023-02-17T12:17:44;101052.16;;;15.17;59.10
78337;BME280;67610;51.588;7.002;2023-02-17T12:34:21;101048.19;;;15.13;59.73
78337;BME280;67610;51.588;7.002;2023-02-17T12:36:50;101058.78;;;15.13;59.79
78337;BME280;67610;51.588;7.002;2023-02-17T12:39:37;101063.41;;;15.11;59.93
78337;BME280;67610;51.588;7.002;2023-02-17T12:42:26;101064.78;;;15.07;60.26
78337;BME280;67610;51.588;7.002;2023-02-17T12:44:58;101060.94;;;15.09;60.11
78337;BME280;67610;51.588;7.002;2023-02-17T12:47:52;101067.28;;;15.00;60.58
78337;BME280;67610;51.588;7.002;2023-02-17T12:50:27;101074.84;;;15.03;60.50
78337;BME280;67610;51.588;7.002;2023-02-17T12:52:58;101083.13;;;15.08;60.20
78337;BME280;67610;51.588;7.002;2023-02-17T12:55:35;101086.28;;;15.04;60.45
78337;BME280;67610;51.588;7.002;2023-02-17T12:58:12;101069.75;;;15.02;60.62
78337;BME280;67610;51.588;7.002;2023-02-17T13:03:34;101055.53;;;14.95;60.84
78337;BME280;67610;51.588;7.002;2023-02-17T13:06:36;101058.50;;;14.92;60.92
78337;BME280;67610;51.588;7.002;2023-02-17T13:09:37;101065.66;;;14.91;61.04
78337;BME280;67610;51.588;7.002;2023-02-17T13:17:27;101068.47;;;14.82;61.52
78337;BME280;67610;51.588;7.002;2023-02-17T13:22:37;101078.75;;;14.85;61.56
78337;BME280;67610;51.588;7.002;2023-02-17T13:25:02;101090.13;;;14.85;61.45
78337;BME280;67610;51.588;7.002;2023-02-17T13:32:37;101110.34;;;14.86;61.65
78337;BME280;67610;51.588;7.002;2023-02-17T13:35:04;101106.53;;;14.89;61.62
78337;BME280;67610;51.588;7.002;2023-02-17T13:40:01;101113.97;;;14.85;61.65
78337;BME280;67610;51.588;7.002;2023-02-17T13:42:38;101111.31;;;14.85;61.69
78337;BME280;67610;51.588;7.002;2023-02-17T13:45:23;101125.72;;;14.83;61.82
78337;BME280;67610;51.588;7.002;2023-02-17T13:47:52;101129.53;;;14.80;61.86
78337;BME280;67610;51.588;7.002;2023-02-17T13:52:53;101131.69;;;14.68;62.13
78337;BME280;67610;51.588;7.002;2023-02-17T13:55:21;101137.81;;;14.69;62.04
78337;BME280;67610;51.588;7.002;2023-02-17T13:57:55;101140.13;;;14.64;62.19
78337;BME280;67610;51.588;7.002;2023-02-17T14:00:29;101143.59;;;14.64;62.02
78337;BME280;67610;51.588;7.002;2023-02-17T14:05:45;101159.16;;;14.67;61.95
78337;BME280;67610;51.588;7.002;2023-02-17T14:10:37;101166.28;;;14.43;62.97
78337;BME280;67610;51.588;7.002;2023-02-17T14:13:03;101162.97;;;14.49;62.55
78337;BME280;67610;51.588;7.002;2023-02-17T14:15:30;101168.41;;;14.55;62.63
78337;BME280;67610;51.588;7.002;2023-02-17T14:17:56;101173.03;;;14.45;63.34
78337;BME280;67610;51.588;7.002;2023-02-17T14:23:10;101177.34;;;14.38;65.00
78337;BME280;67610;51.588;7.002;2023-02-17T14:25:38;101182.56;;;14.22;65.90
78337;BME280;67610;51.588;7.002;2023-02-17T14:28:16;101191.63;;;14.12;66.60
78337;BME280;67610;51.588;7.002;2023-02-17T14:30:42;101188.31;;;14.10;66.59
78337;BME280;67610;51.588;7.002;2023-02-17T14:35:55;101199.69;;;14.02;67.19
78337;BME280;67610;51.588;7.002;2023-02-17T14:38:23;101203.06;;;13.78;68.17
78337;BME280;67610;51.588;7.002;2023-02-17T14:40:49;101186.03;;;13.73;68.40
78337;BME280;67610;51.588;7.002;2023-02-17T14:43:17;101198.25;;;13.74;68.47
78337;BME280;67610;51.588;7.002;2023-02-17T14:45:43;101208.03;;;13.81;68.86
78337;BME280;67610;51.588;7.002;2023-02-17T14:48:09;101208.97;;;13.72;68.93
78337;BME280;67610;51.588;7.002;2023-02-17T14:50:35;101205.13;;;13.67;69.23